createdAt,value
2023-02-11T00:01:48.810Z,4.79
2023-02-11T00:04:19.373Z,4.83
2023-02-11T00:06:49.562Z,4.85
2023-02-11T00:09:19.768Z,4.93
2023-02-11T00:11:50.234Z,4.85
2023-02-11T00:14:20.420Z,4.86
2023-02-11T00:16:50.571Z,4.85
2023-02-11T00:19:20.925Z,4.96
2023-02-11T00:21:51.710Z,4.87
2023-02-11T00:24:21.721Z,4.87
2023-02-11T00:26:52.441Z,4.86
2023-02-11T00:29:23.086Z,4.92
2023-02-11T00:31:53.767Z,4.86
2023-02-11T00:34:24.016Z,4.88
2023-02-11T00:36:54.636Z,4.94
2023-02-11T00:39:25.540Z,4.88
2023-02-11T00:41:56.098Z,4.85
2023-02-11T00:44:26.612Z,4.74
2023-02-11T00:46:56.692Z,4.95
2023-02-11T00:49:27.370Z,4.81
2023-02-11T00:51:58.275Z,4.88
2023-02-11T00:54:29.987Z,4.78
2023-02-11T00:56:58.479Z,4.87
2023-02-11T00:59:29.071Z,4.83
2023-02-11T01:01:59.235Z,4.86
2023-02-11T01:04:29.411Z,4.78
2023-02-11T01:06:59.637Z,4.74
2023-02-11T01:09:30.120Z,4.79
2023-02-11T01:12:00.807Z,4.73
2023-02-11T01:14:31.464Z,4.79
2023-02-11T01:17:01.727Z,4.74
2023-02-11T01:19:31.843Z,4.71
2023-02-11T01:22:02.586Z,4.7
2023-02-11T01:24:33.052Z,4.68
2023-02-11T01:27:03.345Z,4.89
2023-02-11T01:29:33.478Z,4.63
2023-02-11T01:32:03.865Z,4.69
2023-02-11T01:34:34.316Z,4.67
2023-02-11T01:37:04.724Z,4.59
2023-02-11T01:39:35.396Z,4.7
2023-02-11T01:42:05.613Z,4.62
2023-02-11T01:44:36.208Z,4.61
2023-02-11T01:47:06.470Z,4.66
2023-02-11T01:49:36.862Z,4.66
2023-02-11T01:52:07.173Z,4.64
2023-02-11T01:54:37.839Z,4.74
2023-02-11T01:57:08.360Z,4.66
2023-02-11T01:59:38.440Z,4.67
2023-02-11T02:02:09.299Z,4.33
2023-02-11T02:04:39.585Z,4.38
2023-02-11T02:07:09.806Z,4.4
2023-02-11T02:09:40.682Z,4.42
2023-02-11T02:12:11.022Z,4.32
2023-02-11T02:14:41.744Z,4.43
2023-02-11T02:17:12.436Z,4.34
2023-02-11T02:19:42.672Z,4.4
2023-02-11T02:22:13.425Z,4.39
2023-02-11T02:24:43.398Z,4.38
2023-02-11T02:27:14.069Z,4.51
2023-02-11T02:29:44.502Z,4.54
2023-02-11T02:32:15.305Z,4.3
2023-02-11T02:34:45.865Z,4.38
2023-02-11T02:37:15.997Z,4.41
2023-02-11T02:39:46.447Z,4.35
2023-02-11T02:42:16.595Z,4.48
2023-02-11T02:44:47.105Z,4.47
2023-02-11T02:47:17.170Z,4.36
2023-02-11T02:49:47.610Z,4.36
2023-02-11T02:52:18.216Z,4.3
2023-02-11T02:54:48.713Z,4.42
2023-02-11T02:57:19.327Z,4.44
2023-02-11T02:59:49.688Z,4.41
2023-02-11T03:02:20.231Z,4.39
2023-02-11T03:04:50.930Z,4.39
2023-02-11T03:07:21.323Z,4.49
2023-02-11T03:09:51.839Z,4.4
2023-02-11T03:12:22.294Z,4.5
2023-02-11T03:14:52.368Z,4.51
2023-02-11T03:17:22.986Z,4.51
2023-02-11T03:19:53.198Z,4.46
2023-02-11T03:22:23.680Z,4.52
2023-02-11T03:24:54.025Z,4.43
2023-02-11T03:27:24.142Z,4.59
2023-02-11T03:29:54.527Z,5.33
2023-02-11T03:32:24.627Z,4.57
2023-02-11T03:34:55.262Z,4.38
2023-02-11T03:37:25.431Z,4.35
2023-02-11T03:39:55.848Z,4.39
2023-02-11T03:42:26.436Z,4.42
2023-02-11T03:44:57.097Z,4.36
2023-02-11T03:47:27.225Z,4.41
2023-02-11T03:49:57.592Z,4.48
2023-02-11T03:52:28.405Z,4.32
2023-02-11T03:54:58.384Z,4.24
2023-02-11T03:57:28.787Z,4.41
2023-02-11T03:59:58.855Z,4.41
2023-02-11T04:02:29.573Z,4.58
2023-02-11T04:04:59.934Z,4.44
2023-02-11T04:07:30.371Z,4.4
2023-02-11T04:10:00.715Z,4.34
2023-02-11T04:12:30.741Z,4.38
2023-02-11T04:15:01.126Z,4.26
2023-02-11T04:17:31.537Z,4.24
2023-02-11T04:20:01.598Z,4.44
2023-02-11T04:22:31.682Z,4.46
2023-02-11T04:25:02.412Z,4.45
2023-02-11T04:27:32.575Z,4.4
2023-02-11T04:30:02.730Z,4.41
2023-02-11T04:32:33.373Z,4.4
2023-02-11T04:35:03.486Z,4.42
2023-02-11T04:37:33.551Z,4.52
2023-02-11T04:40:03.982Z,4.44
2023-02-11T04:42:34.452Z,4.41
2023-02-11T04:45:04.538Z,4.38
2023-02-11T04:47:34.673Z,4.39
2023-02-11T04:50:05.106Z,4.42
2023-02-11T04:52:35.776Z,4.43
2023-02-11T04:55:05.939Z,4.45
2023-02-11T04:57:36.619Z,4.42
2023-02-11T05:00:07.046Z,4.4
2023-02-11T05:02:37.812Z,4.45
2023-02-11T05:05:08.123Z,4.46
2023-02-11T05:07:38.383Z,4.52
2023-02-11T05:10:08.822Z,4.46
2023-02-11T05:12:38.924Z,4.49
2023-02-11T05:15:09.252Z,4.46
2023-02-11T05:17:39.311Z,4.45
2023-02-11T05:20:09.847Z,4.54
2023-02-11T05:22:40.269Z,4.48
2023-02-11T05:25:10.299Z,4.6
2023-02-11T05:27:40.994Z,4.59
2023-02-11T05:30:11.659Z,4.37
2023-02-11T05:32:42.545Z,4.36
2023-02-11T05:35:12.791Z,3.93
2023-02-11T05:37:42.961Z,4.34
2023-02-11T05:40:13.159Z,4.34
2023-02-11T05:42:43.645Z,4.32
2023-02-11T05:45:14.423Z,4.32
2023-02-11T05:47:44.511Z,4.32
2023-02-11T05:50:14.936Z,4.33
2023-02-11T05:52:45.206Z,4.28
2023-02-11T05:55:15.935Z,4.27
2023-02-11T05:57:46.690Z,4.34
2023-02-11T06:00:17.596Z,4.45
2023-02-11T06:02:47.879Z,4.36
2023-02-11T06:05:18.487Z,4.49
2023-02-11T06:07:49.005Z,4.52
2023-02-11T06:10:19.403Z,4.53
2023-02-11T06:12:49.500Z,4.31
2023-02-11T06:15:19.548Z,4.6
2023-02-11T06:17:49.987Z,4.55
2023-02-11T06:20:20.118Z,4.36
2023-02-11T06:22:50.766Z,4.96
2023-02-11T06:25:21.202Z,4.74
2023-02-11T06:27:51.716Z,4.66
2023-02-11T06:30:22.043Z,4.73
2023-02-11T06:32:52.373Z,4.75
2023-02-11T06:35:22.448Z,4.72
2023-02-11T06:37:52.602Z,4.73
2023-02-11T06:40:23.102Z,4.74
2023-02-11T06:42:53.359Z,4.61
2023-02-11T06:45:23.491Z,4.77
2023-02-11T06:47:53.489Z,4.74
2023-02-11T06:50:23.690Z,4.71
2023-02-11T06:52:54.452Z,4.75
2023-02-11T06:55:25.164Z,4.77
2023-02-11T06:57:55.897Z,4.63
2023-02-11T07:00:26.447Z,4.89
2023-02-11T07:02:56.821Z,4.77
2023-02-11T07:05:27.082Z,5.11
2023-02-11T07:07:57.957Z,4.75
2023-02-11T07:10:28.462Z,4.75
2023-02-11T07:12:59.154Z,4.57
2023-02-11T07:15:29.384Z,4.89
2023-02-11T07:18:00.262Z,4.65
2023-02-11T07:20:30.380Z,5.11
2023-02-11T07:23:01.224Z,5.05
2023-02-11T07:25:31.438Z,4.98
2023-02-11T07:28:01.582Z,4.89
2023-02-11T07:30:32.070Z,4.81
2023-02-11T07:33:02.299Z,5.28
2023-02-11T07:35:33.083Z,5.2
2023-02-11T07:38:03.569Z,4.95
2023-02-11T07:40:33.644Z,5.05
2023-02-11T07:43:03.803Z,5.12
2023-02-11T07:45:34.304Z,5.03
2023-02-11T07:48:04.658Z,5.01
2023-02-11T07:50:35.084Z,5.13
2023-02-11T07:53:05.321Z,5.11
2023-02-11T07:55:35.863Z,5.06
2023-02-11T07:58:06.731Z,4.9
2023-02-11T08:00:37.634Z,4.92
2023-02-11T08:03:08.246Z,5.24
2023-02-11T08:05:38.502Z,4.73
2023-02-11T08:08:08.744Z,4.71
2023-02-11T08:10:39.153Z,5.09
2023-02-11T08:13:09.904Z,4.98
2023-02-11T08:15:40.108Z,4.96
2023-02-11T08:18:10.909Z,5.05
2023-02-11T08:20:40.990Z,4.6
2023-02-11T08:23:11.305Z,4.93
2023-02-11T08:25:42.003Z,4.84
2023-02-11T08:28:12.293Z,4.77
2023-02-11T08:30:42.675Z,4.77
2023-02-11T08:33:13.310Z,5.2
2023-02-11T08:35:44.074Z,5.23
2023-02-11T08:38:14.776Z,4.95
2023-02-11T08:40:44.764Z,4.98
2023-02-11T08:43:14.992Z,5.03
2023-02-11T08:45:45.655Z,4.6
2023-02-11T08:48:16.224Z,4.82
2023-02-11T08:50:47.007Z,5.02
2023-02-11T08:53:17.720Z,4.92
2023-02-11T08:55:48.648Z,5.33
2023-02-11T08:58:19.265Z,5.16
2023-02-11T09:00:49.799Z,4.78
2023-02-11T09:03:19.414Z,4.79
2023-02-11T09:05:49.700Z,4.57
2023-02-11T09:08:20.029Z,4.58
2023-02-11T09:10:50.899Z,5.31
2023-02-11T09:13:20.785Z,4.73
2023-02-11T09:15:51.296Z,4.59
2023-02-11T09:18:21.933Z,5.53
2023-02-11T09:20:52.442Z,5.25
2023-02-11T09:23:22.675Z,4.99
2023-02-11T09:25:53.508Z,4.64
2023-02-11T09:28:23.879Z,4.59
2023-02-11T09:30:55.045Z,5.33
2023-02-11T09:33:24.747Z,5.82
2023-02-11T09:35:55.024Z,4.45
2023-02-11T09:38:25.724Z,4.29
2023-02-11T09:40:56.156Z,4.21
2023-02-11T09:43:26.935Z,4.53
2023-02-11T09:45:56.982Z,4.71
2023-02-11T09:48:26.943Z,5.06
2023-02-11T09:50:57.544Z,4.45
2023-02-11T09:53:27.459Z,5.02
2023-02-11T09:55:57.546Z,5
2023-02-11T09:58:28.219Z,5.24
2023-02-11T10:00:59.136Z,5.01
2023-02-11T10:03:29.249Z,4.9
2023-02-11T10:05:59.881Z,5
2023-02-11T10:08:30.059Z,5.06
2023-02-11T10:11:00.469Z,5.16
2023-02-11T10:13:31.120Z,5.07
2023-02-11T10:16:02.108Z,5.15
2023-02-11T10:18:32.805Z,4.8
2023-02-11T10:21:03.690Z,4.36
2023-02-11T10:23:34.185Z,3.9
2023-02-11T10:26:04.789Z,4.99
2023-02-11T10:28:35.063Z,4.46
2023-02-11T10:31:05.616Z,4.85
2023-02-11T10:33:36.011Z,4.76
2023-02-11T10:36:06.437Z,4.69
2023-02-11T10:38:37.090Z,4.76
2023-02-11T10:41:07.805Z,4.99
2023-02-11T10:43:37.909Z,4.4
2023-02-11T10:46:08.012Z,4.16
2023-02-11T10:48:38.188Z,4.79
2023-02-11T10:51:08.747Z,4.86
2023-02-11T10:53:38.990Z,4.96
2023-02-11T10:56:09.397Z,5.22
2023-02-11T10:58:40.125Z,5.04
2023-02-11T11:01:23.493Z,4.98
2023-02-11T11:03:40.270Z,4.84
2023-02-11T11:06:10.477Z,4.69
2023-02-11T11:08:41.317Z,4.71
2023-02-11T11:11:11.603Z,4.66
2023-02-11T11:13:42.436Z,4.6
2023-02-11T11:16:12.536Z,4.64
2023-02-11T11:18:42.698Z,4.65
2023-02-11T11:21:12.933Z,4.74
2023-02-11T11:23:43.253Z,4.61
2023-02-11T11:26:13.719Z,4.64
2023-02-11T11:28:44.645Z,4.61
2023-02-11T11:31:15.564Z,4.71
2023-02-11T11:33:45.686Z,4.55
2023-02-11T11:36:16.283Z,4.67
2023-02-11T11:38:46.727Z,4.71
2023-02-11T11:41:17.632Z,4.68
2023-02-11T11:43:48.200Z,4.61
2023-02-11T11:46:18.684Z,4.51
2023-02-11T11:48:49.436Z,4.56
2023-02-11T11:51:19.490Z,4.36
2023-02-11T11:53:49.677Z,4.42
2023-02-11T11:56:19.603Z,4.51
2023-02-11T11:58:49.686Z,4.32
2023-02-11T12:01:19.836Z,4.36
2023-02-11T12:03:50.289Z,4.28
2023-02-11T12:06:21.004Z,4.17
2023-02-11T12:08:51.480Z,4.08
2023-02-11T12:11:21.824Z,4.03
2023-02-11T12:13:52.387Z,4
2023-02-11T12:16:22.955Z,4.05
2023-02-11T12:18:53.282Z,4.08
2023-02-11T12:21:23.343Z,4
2023-02-11T12:23:53.972Z,3.95
2023-02-11T12:26:24.790Z,4.02
2023-02-11T12:28:55.136Z,4.05
2023-02-11T12:31:25.686Z,3.86
2023-02-11T12:33:56.258Z,3.92
2023-02-11T12:36:27.008Z,3.71
2023-02-11T12:38:57.372Z,3.75
2023-02-11T12:41:28.089Z,4.01
2023-02-11T12:43:58.240Z,3.3
2023-02-11T12:46:28.579Z,3.79
2023-02-11T12:48:59.142Z,4.09
2023-02-11T12:51:29.350Z,3.8
2023-02-11T12:54:00.283Z,3.83
2023-02-11T12:56:30.319Z,3.69
2023-02-11T12:59:00.668Z,3.53
2023-02-11T13:01:30.765Z,3.81
2023-02-11T13:04:00.966Z,3.84
2023-02-11T13:06:31.005Z,3.32
2023-02-11T13:09:01.860Z,3.49
2023-02-11T13:11:31.908Z,3.3
2023-02-11T13:14:02.179Z,3.73
2023-02-11T13:16:32.726Z,4.51
2023-02-11T13:19:03.446Z,3.15
2023-02-11T13:21:33.797Z,3.94
2023-02-11T13:24:04.368Z,2.93
2023-02-11T13:26:34.640Z,4.28
2023-02-11T13:29:05.224Z,3.77
2023-02-11T13:31:35.740Z,4.09
2023-02-11T13:34:05.985Z,4.29
2023-02-11T13:36:36.362Z,4.26
2023-02-11T13:39:06.605Z,4.15
2023-02-11T13:41:36.720Z,4.25
2023-02-11T13:44:06.865Z,4.21
2023-02-11T13:46:37.038Z,4.23
2023-02-11T13:49:07.338Z,4.29
2023-02-11T13:51:37.699Z,4.21
2023-02-11T13:54:08.143Z,4.31
2023-02-11T13:56:38.968Z,4.34
2023-02-11T13:59:09.641Z,4.26
2023-02-11T14:01:40.267Z,4.27
2023-02-11T14:04:10.344Z,4.28
2023-02-11T14:06:40.863Z,4.21
2023-02-11T14:09:11.606Z,4.23
2023-02-11T14:11:42.097Z,4.1
2023-02-11T14:14:12.478Z,4.38
2023-02-11T14:16:42.901Z,4.7
2023-02-11T14:19:15.875Z,4.38
2023-02-11T14:21:43.266Z,4.24
2023-02-11T14:24:13.666Z,4.16
2023-02-11T14:26:44.266Z,4.02
2023-02-11T14:29:14.629Z,4.06
2023-02-11T14:31:45.096Z,3.95
2023-02-11T14:34:15.379Z,4.38
2023-02-11T14:36:45.616Z,4.34
2023-02-11T14:39:15.717Z,4.29
2023-02-11T14:41:46.270Z,3.75
2023-02-11T14:44:16.652Z,4.19
2023-02-11T14:46:46.682Z,4
2023-02-11T14:49:17.173Z,4.04
2023-02-11T14:51:47.541Z,3.62
2023-02-11T14:54:17.868Z,4.04
2023-02-11T14:56:48.346Z,4.22
2023-02-11T14:59:19.265Z,3.19
2023-02-11T15:01:49.924Z,3.25
2023-02-11T15:04:20.077Z,4.03
2023-02-11T15:06:50.668Z,3.66
2023-02-11T15:09:21.026Z,4.11
2023-02-11T15:11:51.586Z,4.05
2023-02-11T15:14:21.977Z,3.99
2023-02-11T15:16:52.328Z,4.23
2023-02-11T15:19:22.548Z,4.2
2023-02-11T15:21:52.845Z,4.39
2023-02-11T15:24:23.424Z,4.16
2023-02-11T15:26:53.996Z,4.06
2023-02-11T15:29:24.643Z,4.12
2023-02-11T15:31:55.407Z,3.76
2023-02-11T15:34:25.950Z,4.27
2023-02-11T15:36:56.628Z,4.19
2023-02-11T15:39:26.988Z,4.07
2023-02-11T15:41:57.612Z,3.59
2023-02-11T15:44:28.106Z,3.94
2023-02-11T15:46:58.716Z,3.8
2023-02-11T15:49:29.040Z,3.84
2023-02-11T15:51:59.322Z,4.04
2023-02-11T15:54:29.308Z,3.79
2023-02-11T15:57:00.196Z,3.54
2023-02-11T15:59:30.691Z,3.91
2023-02-11T16:02:01.248Z,3.33
2023-02-11T16:04:31.926Z,3.98
2023-02-11T16:07:02.606Z,4.28
2023-02-11T16:09:33.086Z,3.96
2023-02-11T16:12:03.343Z,3.97
2023-02-11T16:14:33.884Z,3.95
2023-02-11T16:17:04.511Z,3.28
2023-02-11T16:19:35.068Z,3.63
2023-02-11T16:22:05.779Z,3.36
2023-02-11T16:24:35.800Z,3.35
2023-02-11T16:27:06.028Z,3.86
2023-02-11T16:29:36.593Z,4.25
2023-02-11T16:32:06.749Z,3.98
2023-02-11T16:34:37.195Z,3.6
2023-02-11T16:37:07.521Z,4
2023-02-11T16:39:37.662Z,2.9
2023-02-11T16:42:08.019Z,4.28
2023-02-11T16:44:38.694Z,4.24
2023-02-11T16:47:09.210Z,4.33
2023-02-11T16:49:39.787Z,4.18
2023-02-11T16:52:10.057Z,4.13
2023-02-11T16:54:40.650Z,4.01
2023-02-11T16:57:10.975Z,3.91
2023-02-11T16:59:41.856Z,4.12
2023-02-11T17:02:12.135Z,3.99
2023-02-11T17:04:42.517Z,3.99
2023-02-11T17:07:12.824Z,4.18
2023-02-11T17:09:43.020Z,2.8
2023-02-11T17:12:13.637Z,4.24
2023-02-11T17:14:44.229Z,4.2
2023-02-11T17:17:14.932Z,4.16
2023-02-11T17:19:45.171Z,4.12
2023-02-11T17:22:15.520Z,4.23
2023-02-11T17:24:46.117Z,4.16
2023-02-11T17:27:16.747Z,4.15
2023-02-11T17:29:47.333Z,4.16
2023-02-11T17:32:17.701Z,4.22
2023-02-11T17:34:47.940Z,4.1
2023-02-11T17:37:18.679Z,4.1
2023-02-11T17:39:49.191Z,4.12
2023-02-11T17:42:19.536Z,4.31
2023-02-11T17:44:49.949Z,4.21
2023-02-11T17:47:20.163Z,4.31
2023-02-11T17:49:50.773Z,4.2
2023-02-11T17:52:21.155Z,4.31
2023-02-11T17:54:51.738Z,4.11
2023-02-11T17:57:22.499Z,4
2023-02-11T17:59:53.188Z,4.08
2023-02-11T18:02:23.813Z,4.15
2023-02-11T18:04:54.167Z,4.28
2023-02-11T18:07:24.777Z,4.27
2023-02-11T18:09:55.366Z,4.33
2023-02-11T18:12:25.964Z,4.14
2023-02-11T18:14:58.104Z,4.26
2023-02-11T18:17:26.898Z,4.21
2023-02-11T18:19:57.154Z,4.02
2023-02-11T18:22:27.775Z,4.16
2023-02-11T18:24:58.458Z,4.16
2023-02-11T18:27:28.960Z,4.07
2023-02-11T18:29:59.613Z,4.17
2023-02-11T18:32:29.928Z,4.15
2023-02-11T18:35:03.157Z,4.07
2023-02-11T18:37:33.101Z,4.22
2023-02-11T18:40:03.450Z,4.17
2023-02-11T18:42:33.948Z,4.12
2023-02-11T18:45:03.836Z,4.19
2023-02-11T18:47:33.302Z,4.06
2023-02-11T18:50:03.921Z,4.07
2023-02-11T18:52:34.571Z,4.01
2023-02-11T18:55:05.158Z,4.06
2023-02-11T18:57:35.603Z,4.19
2023-02-11T19:00:06.121Z,4.04
2023-02-11T19:02:36.378Z,4.08
2023-02-11T19:05:06.990Z,4.08
2023-02-11T19:07:37.625Z,4.16
2023-02-11T19:10:08.232Z,4.15
2023-02-11T19:12:38.854Z,4.14
2023-02-11T19:15:09.186Z,4.14
2023-02-11T19:17:39.916Z,4.1
2023-02-11T19:20:10.390Z,4.08
2023-02-11T19:22:41.025Z,4.08
2023-02-11T19:25:11.334Z,4.1
2023-02-11T19:27:42.001Z,4.09
2023-02-11T19:30:12.548Z,4.13
2023-02-11T19:32:42.809Z,4.17
2023-02-11T19:35:13.409Z,4.15
2023-02-11T19:37:44.038Z,4.15
2023-02-11T19:40:14.636Z,3.97
2023-02-11T19:42:45.253Z,4.05
2023-02-11T19:45:15.864Z,4.13
2023-02-11T19:47:46.244Z,4.22
2023-02-11T19:50:16.831Z,4.27
2023-02-11T19:52:47.498Z,4.22
2023-02-11T19:55:18.057Z,4.21
2023-02-11T19:57:48.694Z,4.48
2023-02-11T20:00:19.293Z,4.52
2023-02-11T20:02:50.106Z,4.38
2023-02-11T20:05:20.525Z,4.12
2023-02-11T20:07:51.204Z,4.06
2023-02-11T20:10:21.764Z,4.03
2023-02-11T20:12:52.125Z,4.28
2023-02-11T20:15:22.398Z,3.93
2023-02-11T20:17:52.813Z,3.81
2023-02-11T20:20:23.308Z,4.01
2023-02-11T20:22:53.767Z,4.25
2023-02-11T20:25:24.281Z,4.12
2023-02-11T20:27:54.923Z,4.23
2023-02-11T20:30:25.508Z,4.08
2023-02-11T20:32:55.976Z,4.07
2023-02-11T20:35:26.694Z,3.84
2023-02-11T20:37:56.949Z,4.34
2023-02-11T20:40:27.144Z,4.36
2023-02-11T20:42:57.589Z,3.82
2023-02-11T20:45:28.118Z,3.97
2023-02-11T20:47:58.839Z,4.01
2023-02-11T20:50:29.394Z,3.93
2023-02-11T20:53:00.072Z,3.93
2023-02-11T20:55:30.671Z,3.67
2023-02-11T20:58:01.331Z,4.44
2023-02-11T21:00:31.980Z,4.32
2023-02-11T21:03:02.678Z,4.3
2023-02-11T21:05:33.016Z,4.37
2023-02-11T21:08:03.347Z,4.35
2023-02-11T21:10:33.722Z,4.38
2023-02-11T21:13:04.134Z,4.33
2023-02-11T21:15:34.771Z,4.33
2023-02-11T21:18:05.220Z,4.18
2023-02-11T21:20:35.744Z,4.21
2023-02-11T21:23:06.172Z,3.58
2023-02-11T21:25:36.436Z,3.88
2023-02-11T21:28:06.725Z,3.92
2023-02-11T21:30:37.481Z,4.02
2023-02-11T21:33:07.694Z,4.08
2023-02-11T21:35:38.340Z,4.04
2023-02-11T21:38:09.051Z,3.98
2023-02-11T21:40:39.356Z,4.3
2023-02-11T21:43:09.377Z,4.27
2023-02-11T21:45:39.899Z,4.21
2023-02-11T21:48:10.536Z,4.29
2023-02-11T21:50:41.159Z,4.76
2023-02-11T21:53:11.920Z,4.39
2023-02-11T21:55:42.416Z,4.26
2023-02-11T21:58:13.098Z,4.22
2023-02-11T22:00:43.751Z,4.23
2023-02-11T22:03:14.340Z,4.24
2023-02-11T22:05:44.968Z,4.24
2023-02-11T22:08:15.386Z,4.24
2023-02-11T22:10:45.803Z,4.22
2023-02-11T22:13:16.390Z,4.36
2023-02-11T22:15:47.003Z,4.39
2023-02-11T22:18:17.642Z,4.4
2023-02-11T22:20:48.258Z,4.3
2023-02-11T22:23:18.440Z,4.34
2023-02-11T22:25:49.174Z,4.3
2023-02-11T22:28:20.070Z,4.44
2023-02-11T22:30:50.187Z,4.3
2023-02-11T22:33:20.821Z,4.3
2023-02-11T22:35:51.431Z,4.3
2023-02-11T22:38:21.809Z,4.38
2023-02-11T22:40:52.349Z,4.26
2023-02-11T22:43:22.731Z,4.4
2023-02-11T22:45:53.910Z,4.5
2023-02-11T22:48:23.996Z,4.43
2023-02-11T22:50:54.674Z,4.47
2023-02-11T22:53:25.365Z,4.45
2023-02-11T22:55:55.997Z,4.38
2023-02-11T22:58:26.184Z,4.44
2023-02-11T23:00:56.284Z,4.42
2023-02-11T23:03:26.923Z,4.44
2023-02-11T23:05:57.374Z,4.29
2023-02-11T23:08:27.725Z,4.35
2023-02-11T23:10:57.894Z,4.45
2023-02-11T23:13:28.597Z,4.4
2023-02-11T23:15:58.829Z,4.39
2023-02-11T23:18:28.913Z,4.47
2023-02-11T23:20:59.297Z,4.49
2023-02-11T23:23:29.632Z,4.39
2023-02-11T23:25:59.557Z,4.4
2023-02-11T23:28:30.284Z,4.39
2023-02-11T23:31:00.582Z,4.4
2023-02-11T23:33:31.231Z,4.5
2023-02-11T23:36:01.893Z,4.43
2023-02-11T23:38:32.595Z,4.45
2023-02-11T23:41:02.529Z,4.62
2023-02-11T23:43:33.194Z,4.41
2023-02-11T23:46:03.979Z,4.42
2023-02-11T23:48:34.492Z,4.47
2023-02-11T23:51:05.096Z,4.45
2023-02-11T23:53:35.422Z,4.47
2023-02-11T23:56:05.734Z,4.49
2023-02-11T23:58:36.397Z,4.47
